Sunday, May 27, 2018, 6:00 AM EDT
Back to Local

KFME, Fort Meade / Tipton

Location: Laurel, MD, United States Lat: 39.083
Local Time: 6:00 AM EDT (10:00 GMT) Lon: -76.767
Time Zone: US/Eastern Elev: 150 ft

Show me the last for .
Show Decoded

2018-05-27 05:36 METAR KFME 270936Z AUTO 00000KT 4SM BKN013 OVC018 21/20 A2991 RMK AO1 =
2018-05-27 05:15 METAR KFME 270915Z AUTO 00000KT 4SM BKN011 OVC018 21/20 A2990 RMK AO1 =
2018-05-27 04:57 METAR KFME 270857Z AUTO 00000KT 4SM BKN013 OVC018 21/20 A2990 RMK AO1 =
2018-05-27 04:36 METAR KFME 270836Z AUTO 00000KT 4SM OVC015 21/20 A2990 RMK AO1 =
2018-05-27 04:15 METAR KFME 270815Z AUTO 00000KT 3SM OVC013 21/20 A2990 RMK AO1 =
2018-05-27 03:57 METAR KFME 270757Z AUTO 00000KT 4SM SCT013 21/20 A2989 RMK AO1 =
2018-05-27 03:36 METAR KFME 270736Z AUTO 00000KT 5SM SCT090 21/20 A2990 RMK AO1 =
2018-05-27 03:15 METAR KFME 270715Z AUTO 17003KT 4SM SCT100 20/20 A2990 RMK AO1 =
2018-05-27 02:57 METAR KFME 270657Z AUTO 00000KT 5SM SCT080 SCT110 21/20 A2989 RMK AO1 =
2018-05-27 02:36 METAR KFME 270636Z AUTO 18003KT 5SM SCT080 SCT100 21/20 A2989 RMK AO1 =
2018-05-27 02:15 METAR KFME 270615Z AUTO 00000KT 5SM SCT100 21/20 A2990 RMK AO1 =
2018-05-27 01:57 METAR KFME 270557Z AUTO 00000KT 5SM CLR 21/20 A2990 RMK AO1 =
2018-05-27 01:36 METAR KFME 270536Z AUTO 00000KT 4SM CLR 21/20 A2990 RMK AO1 =
2018-05-27 01:15 METAR KFME 270515Z AUTO 18004KT 5SM CLR 21/20 A2990 RMK AO1 =
2018-05-27 00:57 METAR KFME 270457Z AUTO 00000KT 4SM CLR 21/20 A2990 RMK AO1 =
2018-05-27 00:36 METAR KFME 270436Z AUTO 00000KT 5SM CLR 21/20 A2990 RMK AO1 =
2018-05-27 00:15 METAR KFME 270415Z AUTO 20003KT 5SM CLR 21/21 A2990 RMK AO1 =
2018-05-26 23:57 METAR KFME 270357Z AUTO 20003KT 4SM CLR 21/21 A2991 RMK AO1 =
2018-05-26 23:36 METAR KFME 270336Z AUTO 00000KT 5SM CLR 21/21 A2992 RMK AO1 =
2018-05-26 23:15 METAR KFME 270315Z AUTO 19003KT 5SM CLR 21/21 A2992 RMK AO1 =
2018-05-26 22:57 METAR KFME 270257Z AUTO 00000KT 5SM CLR 21/21 A2992 RMK AO1 =
2018-05-26 22:36 METAR KFME 270236Z AUTO 00000KT 5SM CLR 22/21 A2991 RMK AO1 =
2018-05-26 22:15 METAR KFME 270215Z AUTO 21003KT 5SM SCT032 22/21 A2991 RMK AO1 =
2018-05-26 21:57 METAR KFME 270157Z AUTO 22004KT 5SM SCT032 22/21 A2991 RMK AO1 =
2018-05-26 21:36 METAR KFME 270136Z AUTO 22005KT 5SM SCT034 22/21 A2990 RMK AO1 =
2018-05-26 21:15 METAR KFME 270115Z AUTO 00000KT 4SM CLR 22/22 A2989 RMK AO1 =
2018-05-26 20:57 METAR KFME 270057Z AUTO 00000KT 4SM CLR 22/22 A2988 RMK AO1 =
2018-05-26 20:36 METAR KFME 270036Z AUTO 00000KT 4SM CLR 22/22 A2987 RMK AO1 =
2018-05-26 20:15 METAR KFME 270015Z AUTO 00000KT 3SM CLR 23/22 A2986 RMK AO1 =
2018-05-26 19:57 METAR KFME 262357Z AUTO 00000KT 2 1/2SM CLR 23/22 A2986 RMK AO1 =
2018-05-26 19:36 METAR KFME 262336Z AUTO 00000KT 5SM CLR 23/22 A2986 RMK AO1 =
2018-05-26 19:15 METAR KFME 262315Z AUTO 00000KT 4SM SCT060 SCT065 23/22 A2985 RMK AO1 =
2018-05-26 18:57 METAR KFME 262257Z AUTO 00000KT 4SM CLR 22/22 A2986 RMK AO1 =
2018-05-26 18:36 METAR KFME 262236Z AUTO 00000KT 4SM CLR 23/22 A2986 RMK AO1 =
2018-05-26 18:15 METAR KFME 262215Z AUTO 00000KT 5SM CLR 23/22 A2986 RMK AO1 =
2018-05-26 17:57 METAR KFME 262157Z AUTO 00000KT 5SM CLR 22/22 A2985 RMK AO1 =
2018-05-26 17:36 METAR KFME 262136Z AUTO 00000KT 7SM CLR 22/21 A2985 RMK AO1 =
2018-05-26 17:15 METAR KFME 262115Z AUTO 00000KT 7SM CLR 23/21 A2986 RMK AO1 =
2018-05-26 16:57 METAR KFME 262057Z AUTO 00000KT 10SM CLR 23/21 A2985 RMK AO1 =
2018-05-26 16:36 METAR KFME 262036Z AUTO 30003KT 10SM CLR 23/21 A2985 RMK AO1 =
2018-05-26 16:15 METAR KFME 262015Z AUTO 24004KT 4SM SCT034 SCT042 BKN048 22/20 A2985 RMK AO1 =
2018-05-26 15:57 METAR KFME 261957Z AUTO 26005KT 2 1/2SM SCT031 SCT041 BKN060 23/21 A2986 RMK AO1
                 =
2018-05-26 15:36 METAR KFME 261936Z AUTO 23006KT 10SM SCT100 SCT120 26/22 A2985 RMK AO1 =
2018-05-26 15:15 METAR KFME 261915Z AUTO 20005KT 10SM SCT048 SCT055 SCT120 29/21 A2984 RMK AO1 =
2018-05-26 14:57 METAR KFME 261857Z AUTO 17005KT 10SM BKN048 BKN055 BKN065 29/22 A2984 RMK AO1 =
2018-05-26 14:36 METAR KFME 261836Z AUTO 00000KT 10SM OVC048 27/22 A2985 RMK AO1 =
2018-05-26 14:15 METAR KFME 261815Z AUTO 00000KT 10SM BKN048 BKN060 OVC085 29/21 A2985 RMK AO1 =
2018-05-26 13:57 METAR KFME 261757Z AUTO 21005KT 10SM 30/21 A2986 RMK AO1 =
2018-05-26 13:36 METAR KFME 261736Z AUTO 24003KT 10SM 30/21 A2987 RMK AO1 =
2018-05-26 13:15 METAR KFME 261715Z AUTO 23006KT 10SM 30/21 A2987 RMK AO1 =
2018-05-26 12:57 METAR KFME 261657Z AUTO 21003KT 10SM 30/20 A2988 RMK AO1 =
2018-05-26 12:36 METAR KFME 261636Z AUTO 22006KT 10SM 30/21 A2988 RMK AO1 =
2018-05-26 12:15 METAR KFME 261615Z AUTO 21006KT 10SM 30/20 A2988 RMK AO1 =
2018-05-26 11:57 METAR KFME 261557Z AUTO 20006KT 10SM CLR 29/21 A2988 RMK AO1 =
2018-05-26 11:36 METAR KFME 261536Z AUTO 00000KT 10SM CLR 29/21 A2989 RMK AO1 =
2018-05-26 11:15 METAR KFME 261515Z AUTO 22005KT 10SM CLR 28/21 A2989 RMK AO1 =
2018-05-26 10:57 METAR KFME 261457Z AUTO 22005KT 10SM CLR 28/21 A2990 RMK AO1 =
2018-05-26 10:36 METAR KFME 261436Z AUTO 23006KT 10SM CLR 27/21 A2990 RMK AO1 =
2018-05-26 10:15 METAR KFME 261415Z AUTO 22005KT 10SM CLR 27/21 A2990 RMK AO1 =
2018-05-26 09:57 METAR KFME 261357Z AUTO 25005KT 10SM CLR 26/21 A2991 RMK AO1 =
2018-05-26 09:36 METAR KFME 261336Z AUTO 23004KT 10SM CLR 26/20 A2991 RMK AO1 =
2018-05-26 09:15 METAR KFME 261315Z AUTO 22007KT 10SM CLR 25/20 A2991 RMK AO1 =
2018-05-26 08:57 METAR KFME 261257Z AUTO 25006KT 10SM CLR 25/20 A2991 RMK AO1 =
2018-05-26 08:36 METAR KFME 261236Z AUTO 24005KT 10SM CLR 24/20 A2991 RMK AO1 =
2018-05-26 08:15 METAR KFME 261215Z AUTO 23005KT 10SM CLR 23/20 A2990 RMK AO1 =
2018-05-26 07:57 METAR KFME 261157Z AUTO 23004KT 10SM CLR 23/20 A2990 RMK AO1 =
2018-05-26 07:36 METAR KFME 261136Z AUTO 23003KT 10SM SCT100 22/19 A2990 RMK AO1 =
2018-05-26 07:15 METAR KFME 261115Z AUTO 22003KT 10SM CLR 21/19 A2990 RMK AO1 =
2018-05-26 06:57 METAR KFME 261057Z AUTO 00000KT 10SM CLR 21/19 A2990 RMK AO1 =
2018-05-26 06:36 METAR KFME 261036Z AUTO 22004KT 10SM SCT120 20/18 A2990 RMK AO1 =
2018-05-26 06:15 METAR KFME 261015Z AUTO 23003KT 10SM SCT120 20/18 A2989 RMK AO1 =

Support USWX by starting your Amazon purchase here.